Time;durP1;ratioP1;P1;durP2;ratioP2;P2;SDS_P1;SDS_P2;PMS_P1;PMS_P2;Temp;Humidity;BMP_temperature;BMP_pressure;BME280_temperature;BME280_humidity;BME280_pressure;Samples;Min_cycle;Max_cycle;Signal;HPM_P1;HPM_P2
2022/11/06 00:02:23;;;;;;;37.78;17.10;;;;;;;5.91;92.06;101267.69;1759677;81;21021;-60
2022/11/06 00:04:52;;;;;;;39.88;18.25;;;;;;;5.89;92.10;101266.97;1759553;81;20996;-60
2022/11/06 00:07:23;;;;;;;38.83;17.27;;;;;;;5.91;92.18;101270.41;1764873;81;21077;-61
2022/11/06 00:09:54;;;;;;;35.55;16.75;;;;;;;5.94;92.21;101262.45;1766105;80;21053;-60
2022/11/06 00:12:24;;;;;;;36.55;17.48;;;;;;;5.94;92.13;101266.03;1752122;81;21083;-62
2022/11/06 00:14:54;;;;;;;34.95;16.67;;;;;;;5.95;92.01;101274.55;1755726;81;21006;-60
2022/11/06 00:17:23;;;;;;;38.92;18.75;;;;;;;5.95;92.05;101273.69;1772224;81;21065;-61
2022/11/06 00:19:53;;;;;;;35.58;16.37;;;;;;;5.95;92.11;101267.75;1769104;81;21604;-62
2022/11/06 00:22:23;;;;;;;32.85;16.52;;;;;;;5.95;92.03;101272.33;1774632;80;21141;-60
2022/11/06 00:24:53;;;;;;;35.55;16.67;;;;;;;5.96;92.04;101274.91;1769936;80;21042;-61
2022/11/06 00:27:23;;;;;;;37.30;17.45;;;;;;;5.95;91.97;101262.31;1779450;80;21013;-61
2022/11/06 00:29:52;;;;;;;39.30;17.57;;;;;;;5.95;92.05;101260.95;1764115;80;21003;-59
2022/11/06 00:32:22;;;;;;;41.75;17.70;;;;;;;5.97;92.01;101253.50;1779277;80;20992;-60
2022/11/06 00:34:52;;;;;;;36.98;18.07;;;;;;;5.97;91.94;101256.22;1779291;80;21017;-61
2022/11/06 00:37:21;;;;;;;40.48;17.15;;;;;;;5.96;91.85;101250.42;1784546;80;21407;-63
2022/11/06 00:39:50;;;;;;;35.78;16.02;;;;;;;5.96;91.82;101256.36;1786038;80;21021;-60
2022/11/06 00:42:21;;;;;;;35.08;17.32;;;;;;;5.95;91.76;101254.15;1786163;80;21007;-60
2022/11/06 00:44:49;;;;;;;36.53;17.20;;;;;;;5.99;91.82;101256.07;1786209;80;21058;-63
2022/11/06 00:47:19;;;;;;;38.92;18.32;;;;;;;5.97;91.68;101250.78;1780890;80;21488;-59
2022/11/06 00:49:48;;;;;;;36.65;17.98;;;;;;;5.92;91.60;101249.00;1779146;80;21013;-61
2022/11/06 00:52:17;;;;;;;36.73;16.10;;;;;;;5.91;91.70;101251.36;1779372;80;21063;-63
2022/11/06 00:54:46;;;;;;;41.88;17.32;;;;;;;5.91;91.75;101244.56;1781253;80;21015;-59
2022/11/06 00:57:16;;;;;;;34.43;16.50;;;;;;;5.94;91.79;101241.55;1785496;80;21107;-63
2022/11/06 00:59:46;;;;;;;36.20;16.85;;;;;;;5.97;91.65;101239.89;1771831;80;21064;-59
2022/11/06 01:02:18;;;;;;;35.23;17.15;;;;;;;5.98;91.58;101238.89;1786110;80;21032;-63
2022/11/06 01:04:47;;;;;;;37.42;17.02;;;;;;;5.97;91.59;101243.13;1769355;80;21066;-60
2022/11/06 01:07:16;;;;;;;34.27;17.35;;;;;;;5.95;91.43;101245.12;1781633;80;21410;-61
2022/11/06 01:09:46;;;;;;;34.27;16.60;;;;;;;5.93;91.41;101243.92;1779147;80;21006;-59
2022/11/06 01:12:17;;;;;;;35.48;16.93;;;;;;;5.94;91.30;101246.14;1782851;80;21035;-60
2022/11/06 01:14:49;;;;;;;32.35;15.48;;;;;;;5.94;91.34;101246.14;1773027;80;21053;-61
2022/11/06 01:17:19;;;;;;;35.43;17.75;;;;;;;5.94;91.29;101242.91;1783815;80;21020;-62
2022/11/06 01:19:50;;;;;;;36.93;17.37;;;;;;;5.95;91.30;101246.49;1779155;80;21101;-60
2022/11/06 01:22:20;;;;;;;35.90;17.02;;;;;;;5.97;91.29;101256.72;1783485;80;21086;-61
2022/11/06 01:24:49;;;;;;;32.80;15.98;;;;;;;5.96;91.19;101251.78;1776160;80;21096;-60
2022/11/06 01:27:19;;;;;;;34.92;16.00;;;;;;;5.97;91.16;101256.22;1781134;80;21072;-61
2022/11/06 01:29:51;;;;;;;32.73;16.15;;;;;;;5.99;91.11;101255.57;1780708;80;21025;-60
2022/11/06 01:32:23;;;;;;;33.53;16.32;;;;;;;6.00;90.86;101251.84;1777400;80;21429;-61
2022/11/06 01:34:53;;;;;;;30.70;14.78;;;;;;;5.99;90.84;101247.41;1766450;80;21066;-59
2022/11/06 01:37:24;;;;;;;29.90;14.63;;;;;;;5.99;90.78;101246.05;1777299;80;21030;-61
2022/11/06 01:39:55;;;;;;;33.92;16.07;;;;;;;5.99;90.50;101246.55;1778948;80;22296;-59
2022/11/06 01:42:24;;;;;;;33.28;15.72;;;;;;;5.94;90.33;101241.55;1779119;80;21084;-59
2022/11/06 01:45:25;;;;;;;32.35;16.23;;;;;;;5.90;90.42;101240.13;1780155;80;21405;-61
2022/11/06 01:47:55;;;;;;;36.53;16.67;;;;;;;5.89;90.46;101246.58;1776255;80;20993;-60
2022/11/06 01:50:26;;;;;;;33.80;15.93;;;;;;;5.89;90.55;101236.17;1782397;80;21017;-61
2022/11/06 01:53:01;;;;;;;28.47;14.13;;;;;;;5.89;90.46;101238.88;1779149;80;21027;-59
2022/11/06 01:55:35;;;;;;;31.02;14.75;;;;;;;5.86;90.44;101236.46;1768196;80;21035;-60
2022/11/06 01:58:06;;;;;;;33.53;16.20;;;;;;;5.83;90.48;101233.50;1779491;80;21081;-60
2022/11/06 02:00:36;;;;;;;34.18;14.80;;;;;;;5.82;90.61;101238.58;1779259;80;21037;-60
2022/11/06 02:03:06;;;;;;;33.42;15.15;;;;;;;5.83;90.64;101240.30;1784193;80;21316;-61
2022/11/06 02:05:36;;;;;;;33.08;15.30;;;;;;;5.84;90.63;101244.73;1776206;80;21013;-60
2022/11/06 02:08:06;;;;;;;30.60;15.40;;;;;;;5.86;90.60;101249.55;1780455;80;21108;-60
2022/11/06 02:10:36;;;;;;;35.45;16.17;;;;;;;5.88;90.61;101243.47;1758454;80;21022;-60
2022/11/06 02:13:40;;;;;;;32.83;16.67;;;;;;;5.87;90.53;101249.05;1784513;80;21067;-61
2022/11/06 02:16:37;;;;;;;31.23;15.55;;;;;;;5.87;90.55;101247.19;1767148;80;21495;-60
2022/11/06 02:19:34;;;;;;;32.50;15.05;;;;;;;5.84;90.47;101249.31;1781011;80;20977;-60
2022/11/06 02:22:19;;;;;;;30.93;14.90;;;;;;;5.83;90.61;101248.45;1780783;80;21035;-60
2022/11/06 02:25:09;;;;;;;31.68;15.65;;;;;;;5.88;90.61;101248.05;1773005;80;21531;-60
2022/11/06 02:27:42;;;;;;;31.15;15.58;;;;;;;5.90;90.53;101243.36;1750202;80;21077;-60
2022/11/06 02:30:12;;;;;;;29.23;14.58;;;;;;;5.88;90.51;101238.53;1778025;80;20999;-61
2022/11/06 02:32:58;;;;;;;31.87;15.05;;;;;;;5.87;90.54;101239.03;1780521;80;21432;-62
2022/11/06 02:35:35;;;;;;;33.42;14.78;;;;;;;5.87;90.56;101236.31;1765553;80;20983;-59
2022/11/06 02:38:18;;;;;;;34.05;14.83;;;;;;;5.86;90.43;101242.76;1751314;80;21052;-60
2022/11/06 02:40:57;;;;;;;32.23;15.53;;;;;;;5.88;90.54;101238.53;1767909;80;21342;-61
2022/11/06 02:43:31;;;;;;;32.95;16.12;;;;;;;5.88;90.53;101242.11;1762489;80;21021;-60
2022/11/06 02:46:18;;;;;;;32.75;14.95;;;;;;;5.88;90.61;101244.83;1763491;80;21020;-61
2022/11/06 02:48:54;;;;;;;33.35;14.63;;;;;;;5.89;90.61;101247.94;1767997;80;21024;-59
2022/11/06 02:51:25;;;;;;;31.82;15.63;;;;;;;5.89;90.54;101248.41;1765535;80;21078;-60
2022/11/06 02:53:58;;;;;;;29.18;14.78;;;;;;;5.89;90.62;101245.69;1780566;80;21400;-60
2022/11/06 02:56:38;;;;;;;36.42;16.23;;;;;;;5.88;90.70;101242.61;1767499;80;21074;-62
2022/11/06 02:59:27;;;;;;;32.17;15.80;;;;;;;5.90;90.75;101246.93;1720610;82;21101;-64
2022/11/06 03:02:01;;;;;;;32.40;14.70;;;;;;;5.90;90.66;101245.57;1766706;80;21010;-59
2022/11/06 03:04:47;;;;;;;31.75;14.58;;;;;;;5.87;90.68;101242.25;1778678;80;21050;-61
2022/11/06 03:07:36;;;;;;;36.53;15.70;;;;;;;5.90;90.80;101248.30;1755532;80;21480;-61
2022/11/06 03:10:08;;;;;;;34.23;15.75;;;;;;;5.90;90.72;101237.91;1773481;80;21551;-60
2022/11/06 03:12:49;;;;;;;36.00;15.65;;;;;;;5.87;90.81;101240.39;1780299;80;21044;-61
2022/11/06 03:15:34;;;;;;;32.45;15.13;;;;;;;5.87;90.83;101243.61;1765638;80;21057;-62
2022/11/06 03:18:13;;;;;;;32.38;15.13;;;;;;;5.88;90.95;101239.39;1767780;80;21448;-60
2022/11/06 03:20:54;;;;;;;31.37;15.18;;;;;;;5.90;91.00;101248.30;1773331;80;21082;-60
2022/11/06 03:23:47;;;;;;;31.45;14.73;;;;;;;5.91;91.04;101249.15;1767745;80;21444;-61
2022/11/06 03:26:33;;;;;;;30.08;14.45;;;;;;;5.92;91.07;101236.77;1757328;80;20999;-60
2022/11/06 03:29:13;;;;;;;32.80;15.60;;;;;;;5.92;91.06;101244.92;1739057;82;21070;-60
2022/11/06 03:32:24;;;;;;;31.60;14.53;;;;;;;5.93;91.10;101237.12;1740819;82;21584;-61
2022/11/06 03:35:17;;;;;;;;;;;;;;;5.95;91.06;101237.83;1739344;82;21011;-60
2022/11/06 03:37:52;;;;;;;37.33;15.78;;;;;;;5.92;90.90;101247.64;1717861;83;20246;-61
2022/11/06 03:40:22;;;;;;;35.03;15.10;;;;;;;5.87;91.06;101236.31;1708175;84;21009;-60
2022/11/06 03:42:54;;;;;;;31.68;15.05;;;;;;;5.86;91.15;101226.44;1718850;82;21022;-59
2022/11/06 03:45:24;;;;;;;36.30;14.75;;;;;;;5.86;91.22;101231.88;1751348;82;21026;-60
2022/11/06 03:48:01;;;;;;;35.73;15.18;;;;;;;5.87;91.21;101230.88;1753660;82;20992;-60
2022/11/06 03:50:42;;;;;;;35.15;16.25;;;;;;;5.87;91.22;101230.02;1745824;82;21407;-60
2022/11/06 03:53:28;;;;;;;32.98;15.13;;;;;;;5.86;91.37;101231.02;1745188;82;21003;-62
2022/11/06 03:56:06;;;;;;;32.60;15.32;;;;;;;5.84;91.41;101224.34;1748791;82;21015;-59
2022/11/06 03:58:38;;;;;;;33.35;14.80;;;;;;;5.81;91.46;101221.91;1753496;82;21384;-60
2022/11/06 04:01:09;;;;;;;32.90;14.85;;;;;;;5.82;91.69;101219.55;1753550;82;21010;-61
2022/11/06 04:03:50;;;;;;;35.83;14.98;;;;;;;5.89;91.73;101225.28;1748659;82;21023;-61
2022/11/06 04:06:40;;;;;;;36.80;16.37;;;;;;;5.89;91.69;101219.38;1750316;82;20995;-59
2022/11/06 04:14:53;;;;;;;37.15;15.45;;;;;;;5.84;91.72;101205.30;1741389;82;21079;-61
2022/11/06 04:17:23;;;;;;;30.92;14.10;;;;;;;5.80;91.89;101211.18;1753579;82;21021;-60
2022/11/06 04:19:57;;;;;;;35.45;15.65;;;;;;;5.80;92.02;101221.55;1753683;82;21029;-60
2022/11/06 04:22:51;;;;;;;34.50;14.53;;;;;;;5.79;92.19;101221.20;1745414;82;21106;-59
2022/11/06 04:28:45;;;;;;;32.58;14.13;;;;;;;5.82;92.35;101227.70;1750442;81;21486;-60
2022/11/06 04:31:34;;;;;;;35.03;14.63;;;;;;;5.83;92.36;101223.98;1765271;81;21035;-60
2022/11/06 04:34:15;;;;;;;32.55;14.23;;;;;;;5.83;92.40;101231.28;1776776;81;21008;-61
2022/11/06 04:36:50;;;;;;;37.00;15.65;;;;;;;5.85;92.48;101233.35;1742359;81;21057;-63
2022/11/06 04:39:46;;;;;;;37.67;15.25;;;;;;;5.86;92.45;101226.44;1754781;81;21036;-60
2022/11/06 04:42:36;;;;;;;34.03;14.95;;;;;;;5.84;92.30;101234.36;1760156;80;21018;-62
2022/11/06 04:45:12;;;;;;;33.80;14.90;;;;;;;5.80;92.33;101225.63;1760791;81;21037;-59
2022/11/06 04:47:42;;;;;;;37.13;14.90;;;;;;;5.80;92.41;101233.80;1721723;81;21075;-61
2022/11/06 04:50:11;;;;;;;34.90;14.87;;;;;;;5.80;92.46;101233.80;1762535;81;21018;-61
2022/11/06 04:52:40;;;;;;;34.20;14.75;;;;;;;5.81;92.47;101234.66;1776340;81;21039;-61
2022/11/06 04:55:10;;;;;;;35.35;14.13;;;;;;;5.78;92.47;101234.94;1761785;80;21528;-61
2022/11/06 04:57:40;;;;;;;36.50;15.45;;;;;;;5.77;92.49;101236.80;1745884;81;21100;-60
2022/11/06 05:00:13;;;;;;;37.90;15.98;;;;;;;5.78;92.56;101243.10;1773359;81;21511;-60
2022/11/06 05:02:43;;;;;;;39.10;16.02;;;;;;;5.77;92.51;101240.02;1756865;81;21060;-60
2022/11/06 05:05:13;;;;;;;36.20;15.03;;;;;;;5.75;92.62;101240.17;1762638;81;21023;-60
2022/11/06 05:07:42;;;;;;;35.78;14.65;;;;;;;5.74;92.71;101239.81;1752396;81;21008;-59
2022/11/06 05:10:13;;;;;;;35.00;14.15;;;;;;;5.75;92.77;101244.25;1771145;80;21063;-60
2022/11/06 05:12:43;;;;;;;38.40;16.27;;;;;;;5.79;92.82;101250.26;1757247;81;21058;-59
2022/11/06 05:15:13;;;;;;;41.10;15.83;;;;;;;5.79;92.77;101252.47;1773604;81;21449;-62
2022/11/06 05:17:42;;;;;;;41.70;16.40;;;;;;;5.80;92.80;101257.41;1757856;81;21414;-59
2022/11/06 05:20:12;;;;;;;40.70;16.20;;;;;;;5.80;92.87;101259.63;1760629;81;21653;-60
2022/11/06 05:22:57;;;;;;;42.15;16.48;;;;;;;5.79;92.82;101266.06;1747566;81;21688;-59
2022/11/06 05:25:29;;;;;;;43.90;16.87;;;;;;;5.74;92.81;101260.21;1772378;81;21441;-61
2022/11/06 05:27:59;;;;;;;39.23;16.23;;;;;;;5.75;92.89;101261.92;1759828;81;21478;-60
2022/11/06 05:30:30;;;;;;;40.78;17.50;;;;;;;5.76;92.99;101262.28;1774952;81;21076;-60
2022/11/06 05:33:01;;;;;;;38.63;16.27;;;;;;;5.77;93.06;101263.14;1777351;81;21023;-60
2022/11/06 05:35:31;;;;;;;41.08;17.05;;;;;;;5.78;93.14;101268.94;1761691;81;21004;-62
2022/11/06 05:38:02;;;;;;;43.45;16.73;;;;;;;5.77;93.15;101268.08;1769753;81;21055;-61
2022/11/06 05:40:32;;;;;;;43.17;16.77;;;;;;;5.80;93.13;101273.22;1765523;81;21447;-60
2022/11/06 05:43:03;;;;;;;40.98;16.23;;;;;;;5.79;93.11;101274.73;1777911;81;20995;-60
2022/11/06 05:45:34;;;;;;;42.67;17.15;;;;;;;5.78;93.27;101264.86;1777744;80;20972;-62
2022/11/06 05:48:03;;;;;;;45.83;18.77;;;;;;;5.79;93.34;101263.85;1777760;81;21059;-61
2022/11/06 05:50:35;;;;;;;40.05;16.20;;;;;;;5.81;93.37;101272.22;1761536;80;20992;-61
2022/11/06 05:53:05;;;;;;;48.25;16.87;;;;;;;5.82;93.39;101269.86;1777244;81;21533;-60
2022/11/06 05:55:35;;;;;;;39.90;16.35;;;;;;;5.85;93.41;101279.59;1777569;81;21031;-65
2022/11/06 05:58:05;;;;;;;43.17;15.98;;;;;;;5.87;93.40;101281.69;1764483;81;21439;-60
2022/11/06 06:00:35;;;;;;;47.15;17.95;;;;;;;5.88;93.31;101284.27;1775349;80;21019;-63
2022/11/06 06:03:04;;;;;;;43.73;16.90;;;;;;;5.85;93.25;101280.95;1756655;81;21020;-60
2022/11/06 06:05:34;;;;;;;44.75;16.97;;;;;;;5.84;93.28;101284.17;1769696;81;21029;-63
2022/11/06 06:08:05;;;;;;;40.28;16.57;;;;;;;5.82;93.25;101287.53;1761571;81;21022;-59
2022/11/06 06:10:37;;;;;;;42.48;15.53;;;;;;;5.81;93.22;101287.17;1777545;80;21372;-61
2022/11/06 06:13:07;;;;;;;45.88;17.15;;;;;;;5.81;93.20;101288.54;1707591;81;21087;-60
2022/11/06 06:15:38;;;;;;;40.70;16.10;;;;;;;5.81;93.33;101292.62;1766440;81;20992;-63
2022/11/06 06:18:12;;;;;;;43.10;17.32;;;;;;;5.80;93.39;101290.05;1774514;81;21035;-61
2022/11/06 06:20:44;;;;;;;43.10;16.55;;;;;;;5.82;93.55;101292.11;1769013;81;21041;-60
2022/11/06 06:23:13;;;;;;;43.70;16.12;;;;;;;5.82;93.52;101284.81;1745297;81;21487;-62
2022/11/06 06:25:43;;;;;;;43.45;17.42;;;;;;;5.84;93.56;101289.61;1768316;81;21458;-61
2022/11/06 06:28:13;;;;;;;39.63;16.75;;;;;;;5.87;93.52;101292.07;1776969;81;21043;-60
2022/11/06 06:30:44;;;;;;;46.42;17.25;;;;;;;5.89;93.54;101291.92;1758143;81;21418;-61
2022/11/06 06:33:13;;;;;;;37.65;16.77;;;;;;;5.88;93.51;101298.37;1756824;81;21021;-62
2022/11/06 06:35:42;;;;;;;47.78;17.57;;;;;;;5.87;93.46;101300.23;1764882;81;21433;-61
2022/11/06 06:38:11;;;;;;;44.58;16.62;;;;;;;5.85;93.48;101304.06;1764094;80;21018;-61
2022/11/06 06:40:43;;;;;;;44.23;17.10;;;;;;;5.83;93.47;101296.55;1684692;84;21049;-61
2022/11/06 06:43:12;;;;;;;49.42;17.23;;;;;;;5.79;93.54;101297.34;1691826;84;21015;-60
2022/11/06 06:45:43;;;;;;;41.68;16.48;;;;;;;5.79;93.71;101299.20;1686096;84;21063;-61
2022/11/06 06:48:13;;;;;;;45.30;16.97;;;;;;;5.78;93.79;101303.78;1707270;84;21138;-63
2022/11/06 06:50:44;;;;;;;42.65;16.07;;;;;;;5.79;93.89;101298.70;1696929;84;21196;-60
2022/11/06 06:53:13;;;;;;;41.15;16.85;;;;;;;5.80;93.90;101304.50;1697671;84;21028;-60
2022/11/06 06:55:42;;;;;;;42.55;17.27;;;;;;;5.80;93.99;101305.00;1684541;84;21051;-61
2022/11/06 06:58:11;;;;;;;44.45;16.87;;;;;;;5.80;94.01;101305.86;1711452;81;21011;-61
2022/11/06 07:00:44;;;;;;;41.95;16.73;;;;;;;5.81;94.04;101308.94;1745919;81;21067;-64
2022/11/06 07:03:13;;;;;;;42.93;16.97;;;;;;;5.81;94.04;101308.08;1758797;81;21105;-62
2022/11/06 07:05:43;;;;;;;42.50;16.90;;;;;;;5.82;94.07;101316.59;1752311;81;21480;-61
2022/11/06 07:08:14;;;;;;;40.55;15.68;;;;;;;5.77;94.02;101321.11;1764836;81;21024;-60
2022/11/06 07:10:44;;;;;;;42.80;15.60;;;;;;;5.74;93.99;101309.16;1747460;81;21037;-62
2022/11/06 07:13:15;;;;;;;42.25;16.95;;;;;;;5.76;94.18;101315.31;1759653;81;21046;-61
2022/11/06 07:15:45;;;;;;;40.90;16.17;;;;;;;5.74;94.16;101310.02;1776807;81;20995;-60
2022/11/06 07:18:14;;;;;;;40.25;16.27;;;;;;;5.71;94.19;101310.80;1766245;80;20994;-62
2022/11/06 07:20:45;;;;;;;41.00;15.30;;;;;;;5.68;94.21;101317.89;1759770;81;21065;-58
2022/11/06 07:23:14;;;;;;;39.35;15.78;;;;;;;5.66;94.37;101311.73;1770366;81;21421;-62
2022/11/06 07:25:46;;;;;;;43.78;16.73;;;;;;;5.70;94.48;101312.66;1764604;81;21110;-63
2022/11/06 07:28:16;;;;;;;41.55;16.05;;;;;;;5.74;94.53;101319.53;1764021;80;21280;-61
2022/11/06 07:30:49;;;;;;;42.62;15.75;;;;;;;5.76;94.53;101316.66;1750948;81;21094;-61
2022/11/06 07:33:19;;;;;;;41.13;15.32;;;;;;;5.74;94.43;101320.89;1763676;81;21071;-61
2022/11/06 07:35:48;;;;;;;38.67;14.87;;;;;;;5.75;94.52;101323.11;1771240;81;21043;-60
2022/11/06 07:38:17;;;;;;;34.67;14.93;;;;;;;5.76;94.51;101318.53;1769982;81;21046;-60
2022/11/06 07:40:47;;;;;;;33.95;15.20;;;;;;;5.76;94.47;101321.25;1758084;80;21035;-61
2022/11/06 07:43:19;;;;;;;40.55;16.73;;;;;;;5.76;94.45;101322.11;1757796;81;21043;-59
2022/11/06 07:45:48;;;;;;;41.73;16.02;;;;;;;5.77;94.48;101321.11;1777321;81;21039;-61
2022/11/06 07:48:17;;;;;;;38.65;15.78;;;;;;;5.78;94.59;101328.27;1777784;81;21011;-60
2022/11/06 07:50:46;;;;;;;37.15;15.50;;;;;;;5.81;94.63;101329.33;1762703;81;21531;-62
2022/11/06 07:53:15;;;;;;;41.98;15.40;;;;;;;5.82;94.53;101331.55;1759595;81;21073;-62
2022/11/06 07:55:51;;;;;;;39.33;15.70;;;;;;;5.80;94.42;101338.99;1757971;81;21057;-61
2022/11/06 07:58:21;;;;;;;48.30;16.35;;;;;;;5.81;94.54;101339.35;1766673;80;21028;-61
2022/11/06 08:00:56;;;;;;;43.40;16.07;;;;;;;5.84;94.62;101334.98;1759553;81;21094;-61
2022/11/06 08:03:28;;;;;;;45.52;17.00;;;;;;;5.83;94.59;101338.20;1745281;81;21102;-62
2022/11/06 08:06:02;;;;;;;45.88;16.35;;;;;;;5.84;94.73;101339.92;1759731;81;21056;-61
2022/11/06 08:08:31;;;;;;;48.13;16.65;;;;;;;5.88;94.81;101338.66;1758496;81;21467;-63
2022/11/06 08:11:07;;;;;;;44.30;16.57;;;;;;;5.93;94.83;101347.28;1772930;81;21495;-62
2022/11/06 08:13:37;;;;;;;44.27;16.82;;;;;;;5.96;94.75;101336.61;1768949;81;21023;-62
2022/11/06 08:16:09;;;;;;;44.27;15.80;;;;;;;5.99;94.73;101341.27;1764023;81;20976;-60
2022/11/06 08:18:39;;;;;;;43.45;16.10;;;;;;;5.99;94.68;101338.54;1764604;80;21023;-61
2022/11/06 08:21:08;;;;;;;39.15;16.73;;;;;;;6.01;94.67;101339.25;1764691;81;20996;-59
2022/11/06 08:23:38;;;;;;;41.08;16.17;;;;;;;6.01;94.59;101340.61;1764833;81;21005;-62
2022/11/06 08:26:07;;;;;;;38.65;16.77;;;;;;;6.03;94.57;101346.77;1752399;81;21098;-63
2022/11/06 08:28:36;;;;;;;34.75;15.83;;;;;;;6.09;94.58;101347.19;1764170;81;21035;-61
2022/11/06 08:31:07;;;;;;;43.73;17.30;;;;;;;6.11;94.55;101344.68;1763175;81;21002;-60
2022/11/06 08:33:36;;;;;;;38.67;16.70;;;;;;;6.13;94.57;101347.25;1759625;81;21093;-62
2022/11/06 08:36:07;;;;;;;38.80;16.10;;;;;;;6.17;94.64;101353.62;1760002;81;20996;-60
2022/11/06 08:38:37;;;;;;;37.48;15.10;;;;;;;6.22;94.54;101351.31;1769452;81;21488;-63
2022/11/06 08:41:11;;;;;;;39.08;16.52;;;;;;;6.24;94.32;101347.95;1764574;81;21090;-61
2022/11/06 08:43:41;;;;;;;40.70;16.05;;;;;;;6.26;94.34;101349.16;1764995;81;21053;-63
2022/11/06 08:46:11;;;;;;;41.15;17.07;;;;;;;6.31;94.40;101352.30;1761496;80;21027;-61
2022/11/06 08:48:41;;;;;;;40.78;16.07;;;;;;;6.33;94.23;101348.42;1756578;81;21015;-60
2022/11/06 08:51:10;;;;;;;40.75;16.55;;;;;;;6.38;94.24;101346.63;1761934;81;21051;-61
2022/11/06 08:53:39;;;;;;;44.93;16.90;;;;;;;6.42;94.15;101349.41;1757113;81;21018;-61
2022/11/06 08:56:08;;;;;;;39.80;16.37;;;;;;;6.45;94.00;101351.83;1759690;81;21004;-61
2022/11/06 08:58:37;;;;;;;48.63;20.65;;;;;;;6.49;93.88;101352.39;1754863;81;20991;-63
2022/11/06 09:01:07;;;;;;;40.10;16.67;;;;;;;6.52;93.85;101351.63;1755330;80;21090;-63
2022/11/06 09:03:37;;;;;;;35.43;16.40;;;;;;;6.56;93.83;101357.12;1764502;81;21033;-65
2022/11/06 09:06:07;;;;;;;41.75;16.25;;;;;;;6.58;93.70;101354.26;1776309;81;21051;-62
2022/11/06 09:08:36;;;;;;;37.85;15.95;;;;;;;6.57;93.56;101357.48;1762029;80;21408;-62
2022/11/06 09:11:06;;;;;;;36.80;16.77;;;;;;;6.59;93.47;101351.39;1767730;81;21013;-63
2022/11/06 09:13:35;;;;;;;39.13;16.80;;;;;;;6.60;93.31;101357.69;1752558;81;21055;-61
2022/11/06 09:16:06;;;;;;;38.98;16.42;;;;;;;6.60;93.35;101357.19;1764919;81;21011;-62
2022/11/06 09:18:39;;;;;;;41.28;16.65;;;;;;;6.61;93.40;101353.46;1758629;81;21073;-61
2022/11/06 09:21:09;;;;;;;43.78;17.45;;;;;;;6.65;93.35;101357.60;1754410;81;21006;-62
2022/11/06 09:23:38;;;;;;;38.92;15.58;;;;;;;6.64;93.15;101352.30;1764314;81;21035;-63
2022/11/06 09:26:07;;;;;;;35.98;15.28;;;;;;;6.63;93.10;101352.81;1764546;81;21007;-64
2022/11/06 09:28:37;;;;;;;39.40;16.48;;;;;;;6.64;93.04;101350.44;1777309;81;21075;-63
2022/11/06 09:31:06;;;;;;;38.35;16.23;;;;;;;6.63;92.85;101356.89;1764198;80;21086;-64
2022/11/06 09:33:36;;;;;;;39.53;16.35;;;;;;;6.60;92.82;101351.74;1763175;81;21014;-63
2022/11/06 09:36:07;;;;;;;39.92;16.45;;;;;;;6.61;92.87;101353.96;1777075;81;21469;-64
2022/11/06 09:38:37;;;;;;;36.85;15.40;;;;;;;6.62;92.79;101348.87;1758398;81;21027;-63
2022/11/06 09:41:06;;;;;;;38.48;15.20;;;;;;;6.59;92.66;101352.75;1757272;81;21039;-62
2022/11/06 09:44:13;;;;;;;39.75;15.53;;;;;;;6.57;92.68;101349.31;1727073;82;21119;-64
2022/11/06 09:46:45;;;;;;;39.65;16.77;;;;;;;6.57;92.72;101350.68;1755487;81;21437;-63
2022/11/06 09:49:41;;;;;;;41.45;16.80;;;;;;;6.54;92.78;101350.12;1771139;81;21435;-65
2022/11/06 09:52:21;;;;;;;38.55;15.43;;;;;;;6.54;92.89;101350.98;1767403;80;21072;-66
2022/11/06 09:54:59;;;;;;;42.08;16.05;;;;;;;6.55;92.94;101352.69;1772419;81;21016;-62
2022/11/06 09:57:55;;;;;;;38.45;16.25;;;;;;;6.59;93.01;101343.72;1769443;81;21043;-63
2022/11/06 10:00:24;;;;;;;38.20;16.10;;;;;;;6.59;93.06;101354.11;1769492;81;21050;-64
2022/11/06 10:02:58;;;;;;;41.13;17.05;;;;;;;6.56;93.06;101350.33;1751901;81;20995;-63
2022/11/06 10:05:36;;;;;;;37.88;15.95;;;;;;;6.55;93.20;101347.25;1746972;81;21010;-64
2022/11/06 10:08:16;;;;;;;38.65;15.18;;;;;;;6.56;93.28;101343.52;1757344;81;21031;-62
2022/11/06 10:11:11;;;;;;;35.40;15.48;;;;;;;6.60;93.41;101342.72;1761467;81;21061;-61
2022/11/06 10:13:53;;;;;;;37.35;17.00;;;;;;;6.62;93.48;101338.84;1764599;81;21057;-63
2022/11/06 10:16:50;;;;;;;41.98;16.20;;;;;;;6.62;93.50;101340.20;1777256;81;20999;-62
2022/11/06 10:19:35;;;;;;;42.67;16.37;;;;;;;6.61;93.48;101340.34;1780105;81;21490;-61
2022/11/06 10:22:18;;;;;;;41.65;15.93;;;;;;;6.59;93.65;101336.41;1766786;81;21031;-63
2022/11/06 10:25:01;;;;;;;41.70;15.25;;;;;;;6.61;93.74;101333.03;1763970;80;21069;-62
2022/11/06 10:27:41;;;;;;;37.13;16.37;;;;;;;6.62;93.88;101330.67;1777071;81;21058;-62
2022/11/06 10:30:13;;;;;;;39.30;15.48;;;;;;;6.64;93.97;101331.87;1759367;81;21026;-63
2022/11/06 10:33:21;;;;;;;34.38;15.15;;;;;;;6.61;93.91;101337.12;1748971;81;21061;-62
2022/11/06 10:36:06;;;;;;;;;;;;;;;6.62;93.99;101322.50;1773056;81;21073;-62
2022/11/06 10:38:38;;;;;;;37.93;14.90;;;;;;;6.64;94.21;101327.29;1768174;81;20167;-64
2022/11/06 10:41:18;;;;;;;37.80;15.83;;;;;;;6.64;94.42;101321.84;1762505;81;21079;-61
2022/11/06 10:43:58;;;;;;;32.40;14.00;;;;;;;6.65;94.60;101324.06;1776573;80;21063;-65
2022/11/06 10:46:34;;;;;;;35.28;15.48;;;;;;;6.66;94.71;101321.19;1768899;81;21069;-62
2022/11/06 10:49:30;;;;;;;31.97;14.28;;;;;;;6.68;94.84;101323.26;1774728;81;21555;-63
2022/11/06 10:52:28;;;;;;;33.90;13.85;;;;;;;6.70;94.90;101318.16;1764360;81;21491;-65
2022/11/06 10:55:32;;;;;;;36.80;15.78;;;;;;;6.71;94.84;101312.57;1776388;81;21432;-63
2022/11/06 10:58:14;;;;;;;36.38;16.80;;;;;;;6.73;94.71;101313.78;1765420;81;21410;-64
2022/11/06 11:00:46;;;;;;;42.35;18.12;;;;;;;6.70;94.78;101305.41;1774521;80;21064;-62
2022/11/06 11:03:35;;;;;;;38.30;17.70;;;;;;;6.74;94.93;101312.77;1764638;81;21018;-62
2022/11/06 11:06:06;;;;;;;35.17;15.38;;;;;;;6.76;95.03;101312.12;1745416;81;21083;-63
2022/11/06 11:08:47;;;;;;;34.65;15.32;;;;;;;6.75;95.21;101303.59;1759782;81;21049;-62
2022/11/06 11:11:22;;;;;;;36.90;14.70;;;;;;;6.76;95.21;101309.39;1766460;81;20976;-63
2022/11/06 11:14:04;;;;;;;35.88;15.38;;;;;;;6.76;95.39;101302.08;1758690;81;21053;-64
2022/11/06 11:16:39;;;;;;;33.02;13.18;;;;;;;6.75;95.39;101301.73;1667045;85;21016;-62
2022/11/06 11:19:36;;;;;;;30.40;13.55;;;;;;;6.74;95.49;101303.23;1677709;85;21099;-62
2022/11/06 11:22:19;;;;;;;28.85;12.90;;;;;;;6.70;95.33;101296.38;1673877;85;21063;-61
2022/11/06 11:25:09;;;;;;;29.23;13.60;;;;;;;6.67;95.30;101285.28;1663461;85;21027;-63
2022/11/06 11:27:56;;;;;;;27.62;12.82;;;;;;;6.63;95.22;101290.17;1673743;85;21128;-63
2022/11/06 11:30:28;;;;;;;29.77;13.20;;;;;;;6.62;95.22;101288.45;1693882;84;21058;-63
2022/11/06 11:32:58;;;;;;;24.35;12.58;;;;;;;6.60;95.12;101290.98;1693727;84;21090;-63
2022/11/06 11:35:29;;;;;;;24.85;12.65;;;;;;;6.61;95.07;101281.30;1736074;81;21102;-63
2022/11/06 11:38:17;;;;;;;24.47;11.85;;;;;;;6.62;94.89;101287.09;1739073;81;21042;-64
2022/11/06 11:40:47;;;;;;;24.85;12.15;;;;;;;6.62;94.80;101291.19;1740615;82;21015;-62
2022/11/06 11:43:25;;;;;;;24.15;12.50;;;;;;;6.61;94.68;101281.30;1746075;81;21098;-62
2022/11/06 11:46:17;;;;;;;25.82;13.10;;;;;;;6.60;94.58;101280.95;1750435;81;21466;-64
2022/11/06 11:48:54;;;;;;;27.17;12.98;;;;;;;6.62;94.59;101280.80;1744357;82;21051;-62
2022/11/06 11:51:34;;;;;;;29.55;14.47;;;;;;;6.62;94.30;101283.52;1745047;81;21007;-63
2022/11/06 11:54:15;;;;;;;30.05;14.68;;;;;;;6.59;94.30;101279.23;1738866;82;21027;-62
2022/11/06 11:56:58;;;;;;;28.38;14.00;;;;;;;6.54;94.21;101284.27;1734816;82;21019;-63
2022/11/06 11:59:37;;;;;;;25.52;13.30;;;;;;;6.52;94.36;101284.92;1735361;82;21042;-64
2022/11/06 12:02:28;;;;;;;28.65;14.23;;;;;;;6.53;94.43;101283.05;1728199;82;21008;-61